Flight Track Log - Related Links

Times and Time Zones

All times are in EDT time to prevent confusion due to time zone crossing. See the RPA4290 flight status page for this flight to view local times or setup timezone preferences in your user account.

Time Position Orientation Groundspeed Altitude Reporting Facility
EDT Latitude Longitude Course Direction KTS MPH feet Rate Location/Type
Tue 02:39:37 PM 42.0333 -88.0167 17° North 257 296 4,000  Level Chicago TRACON
Tue 02:40:43 PM 42.1167 -88.0167 360° North 267 307 5,000 1,837 Climbing Chicago TRACON
Tue 02:41:00 PM 42.4467 -87.7467 10° North  Level FlightAware Approximate
Tue 02:42:00 PM 42.5648 -87.7029 12° North  Level FlightAware Approximate
Tue 02:42:04 PM 42.2244 -88.0300 355° North 278 320 8,500  Level Chicago Center
Tue 02:43:00 PM 42.6858 -87.6659 14° North  Level FlightAware Approximate
Tue 02:43:06 PM 42.3042 -88.0331 358° North 285 328 11,600  Level Chicago Center
Tue 02:44:00 PM 42.0666 -87.8633 North  Level FlightAware Approximate
Tue 02:44:08 PM 42.3792 -88.0336 360° North 296 341 12,800  Level Chicago Center
Tue 02:45:00 PM 42.1697 -87.8355 17° North  Level FlightAware Approximate
Tue 02:45:10 PM 42.4964 -88.0336 360° North 345 397 15,800  Level Chicago Center
Tue 02:46:13 PM 42.5772 -87.9461 39° Northeast 372 428 17,700 1,872 Climbing Chicago Center
Tue 02:47:15 PM 42.6550 -87.8483 43° Northeast 380 437 19,700 1,887 Climbing Chicago Center
Tue 02:48:17 PM 42.7369 -87.7467 42° Northeast 393 452 21,600 1,645 Climbing Chicago Center
Tue 02:49:19 PM 42.8153 -87.6328 47° Northeast 416 479 23,100 1,597 Climbing Chicago Center
Tue 02:50:21 PM 42.8472 -87.4386 77° East 449 517 24,900 1,452 Climbing Chicago Center
Tue 02:51:23 PM 42.8661 -87.2675 81° East 456 525 26,100 1,258 Climbing Chicago Center
Tue 02:52:25 PM 42.8844 -87.0925 82° East 466 536 27,500 1,355 Climbing Chicago Center
Tue 02:53:27 PM 42.9019 -86.9164 82° East 470 541 28,900 1,344 Climbing Chicago Center
Tue 02:54:30 PM 42.9200 -86.7422 82° East 469 540 30,300 1,392 Climbing Chicago Center
Tue 02:55:32 PM 42.9425 -86.5328 82° East 469 540 31,800 1,161 Climbing Chicago Center
Tue 02:56:34 PM 42.9586 -86.3594 83° East 467 537 32,700 581 Climbing Chicago Center
Tue 02:57:36 PM 42.9747 -86.2022 82° East 462 532 33,000 145 Climbing Chicago Center
Tue 02:58:38 PM 42.9917 -86.0194 83° East 481 554 33,000  Level Chicago Center
Tue 02:59:40 PM 43.0119 -85.8086 82° East 473 544 33,000  Level Chicago Center
Tue 03:00:42 PM 43.0286 -85.6322 83° East 470 541 33,000  Level Chicago Center
Tue 03:01:45 PM 43.0439 -85.4569 83° East 469 540 33,000  Level Chicago Center
Tue 03:02:47 PM 43.0600 -85.2814 83° East 467 537 33,000  Level Chicago Center
Tue 03:03:49 PM 43.0758 -85.1053 83° East 465 535 33,000  Level Chicago Center
Tue 03:04:51 PM 43.0906 -84.9308 83° East 465 535 33,000  Level Chicago Center
Tue 03:05:53 PM 43.0964 -84.7119 88° East 484 557 33,000  Level Chicago Center
Tue 03:06:55 PM 43.0969 -84.5258 90° East 488 562 33,000  Level Chicago Center
Tue 03:07:57 PM 43.0972 -84.3392 90° East 489 563 33,000  Level Chicago Center
Tue 03:08:59 PM 43.0958 -84.1522 91° East 490 564 33,000  Level Chicago Center
Tue 03:10:25 PM 43.0931 -83.8753 91° East 490 564 33,000  Level Cleveland Center
Tue 03:11:27 PM 43.0900 -83.6897 91° East 489 563 33,000  Level Cleveland Center
Tue 03:12:29 PM 43.0881 -83.5056 91° East 487 560 33,000  Level Cleveland Center
Tue 03:13:31 PM 43.0869 -83.3192 90° East 487 560 33,000  Level Cleveland Center
Tue 03:14:33 PM 43.0839 -83.1328 91° East 488 562 33,000  Level Cleveland Center
Tue 03:15:35 PM 43.0797 -82.9106 91° East 488 562 33,000  Level Cleveland Center
Tue 03:16:38 PM 43.0778 -82.7261 91° East 487 560 33,000  Level Cleveland Center
Tue 03:17:33 PM 43.0667 -82.5333 94° East 480 552 33,000  Level Toronto Center
Tue 03:18:33 PM 43.0667 -82.3667 90° East 480 552 33,000  Level Toronto Center
Tue 03:19:33 PM 43.0500 -82.1667 96° East 480 552 33,000  Level Toronto Center
Tue 03:20:33 PM 43.0500 -82.0000 90° East 480 552 33,000  Level Toronto Center
Tue 03:21:33 PM 43.0500 -81.8167 90° East 480 552 33,000  Level Toronto Center
Tue 03:22:33 PM 43.0500 -81.6333 90° East 480 552 33,000  Level Toronto Center
Tue 03:23:33 PM 43.0333 -81.4333 96° East 480 552 33,000  Level Toronto Center
Tue 03:24:33 PM 43.0333 -81.2833 90° East 480 552 33,000  Level Toronto Center
Tue 03:25:33 PM 43.0167 -81.1000 97° East 480 552 33,000  Level Toronto Center
Tue 03:26:33 PM 43.0167 -80.8833 90° East 490 564 33,000  Level Toronto Center
Tue 03:27:33 PM 43.0167 -80.7333 90° East 490 564 33,000  Level Toronto Center
Tue 03:28:33 PM 43.0167 -80.5167 90° East 480 552 33,000  Level Toronto Center
Tue 03:29:33 PM 43.0000 -80.3333 97° East 480 552 33,000  Level Toronto Center
Tue 03:30:33 PM 43.0000 -80.1500 90° East 480 552 33,000  Level Toronto Center
Tue 03:31:33 PM 42.9833 -79.9667 97° East 480 552 33,000  Level Toronto Center
Tue 03:32:33 PM 42.9833 -79.8000 90° East 480 552 33,000  Level Toronto Center
Tue 03:33:33 PM 42.9667 -79.6167 97° East 480 552 33,000  Level Toronto Center
Tue 03:34:33 PM 42.9667 -79.4500 90° East 480 552 33,000  Level Toronto Center
Tue 03:35:33 PM 42.9500 -79.2500 96° East 490 564 33,000  Level Toronto Center
Tue 03:36:33 PM 42.9500 -79.0667 90° East 480 552 33,000  Level Toronto Center
Tue 03:37:33 PM 42.9333 -78.8833 97° East 480 552 33,000  Level Toronto Center
Tue 03:38:44 PM 42.9331 -78.7100 90° East 472 543 33,000 -45 Level Cleveland Center
Tue 03:39:46 PM 42.9256 -78.5367 93° East 459 528 32,900 -1,210 Descending Cleveland Center
Tue 03:40:48 PM 42.9242 -78.3539 91° East 480 552 30,500 -2,352 Descending Cleveland Center
Tue 03:41:51 PM 42.9189 -78.1358 92° East 479 551 28,000 -1,200 Descending Cleveland Center
Tue 03:42:53 PM 42.9147 -77.9525 92° East 481 554 28,000  Level Cleveland Center
Tue 03:43:55 PM 42.9106 -77.7697 92° East 480 552 28,000 -484 Level Cleveland Center
Tue 03:44:57 PM 42.9064 -77.5894 92° East 476 548 27,000 -484 Descending Cleveland Center
Tue 03:45:59 PM 42.9014 -77.4122 92° East 464 534 27,000  Level Cleveland Center
Tue 03:47:01 PM 42.8964 -77.2339 92° East 467 537 27,000  Level Cleveland Center
Tue 03:48:03 PM 42.8967 -77.0564 90° East 467 537 27,000  Level Cleveland Center
Tue 03:49:05 PM 42.8953 -76.8786 91° East 468 539 27,000  Level Cleveland Center
Tue 03:49:40 PM 42.8969 -76.7775 89° East 461 531 27,000  Level Boston Center
Tue 03:50:40 PM 42.8483 -76.6339 115° Southeast 427 491 27,000  Level Boston Center
Tue 03:51:44 PM 42.7739 -76.5086 129° Southeast 426 490 27,000  Level Boston Center
Tue 03:52:46 PM 42.6858 -76.3583 129° Southeast 425 489 27,000  Level Boston Center
Tue 03:53:46 PM 42.6111 -76.2314 129° Southeast 427 491 27,000  Level Boston Center
Tue 03:54:47 PM 42.5406 -76.1103 128° Southeast 429 494 27,000  Level Boston Center
Tue 03:55:48 PM 42.4642 -75.9842 129° Southeast 430 495 27,000 -48 Level Boston Center
Tue 03:56:52 PM 42.3917 -75.8614 129° Southeast 420 483 26,900 -768 Descending Boston Center
Tue 03:57:53 PM 42.3197 -75.7400 129° Southeast 417 480 25,400 -1,968 Descending Boston Center
Tue 03:58:57 PM 42.2328 -75.5953 129° Southeast 416 479 22,800 -2,274 Descending Boston Center
Tue 03:59:57 PM 42.1631 -75.4817 130° Southeast 400 460 20,700 -2,033 Descending Boston Center
Tue 04:00:58 PM 42.0961 -75.3706 129° Southeast 385 443 18,700 -1,328 Descending Boston Center
Tue 04:01:59 PM 42.0394 -75.2536 123° Southeast 382 440 18,000 -336 Descending Boston Center
Tue 04:03:03 PM 41.9872 -75.1144 117° Southeast 382 440 18,000  Level Boston Center
Tue 04:04:04 PM 41.9339 -74.9747 117° Southeast 389 448 18,000 -639 Level Boston Center
Tue 04:05:05 PM 41.8850 -74.8464 117° Southeast 387 445 16,700 -1,258 Descending Boston Center
Tue 04:06:08 PM 41.8383 -74.7228 117° Southeast 376 433 15,400 -1,258 Descending Boston Center
Tue 04:07:09 PM 41.7647 -74.6419 141° Southeast 326 375 14,100 -1,240 Descending Boston Center
Tue 04:08:09 PM 41.6886 -74.5853 151° Southeast 317 365 12,900 -1,452 Descending Boston Center
Tue 04:09:13 PM 41.6136 -74.5314 152° Southeast 311 358 11,100 -1,776 Descending Boston Center
Tue 04:10:14 PM 41.5350 -74.4750 152° Southeast 301 346 9,200 -1,721 Descending Boston Center
Tue 04:11:15 PM 41.4636 -74.4228 151° Southeast 296 341 7,600 -1,091 Descending Boston Center
Tue 04:12:15 PM 41.3836 -74.4028 169° South 283 326 7,000 -840 Descending Boston Center
Tue 04:12:55 PM 41.3333 -74.4000 178° South 278 320 6,200 -600 Descending New York TRACON
Tue 04:13:55 PM 41.2667 -74.3833 169° South 276 318 6,000 -100 Descending New York TRACON
Tue 04:14:55 PM 41.1833 -74.3500 163° South 277 319 6,000 -500 Level New York TRACON
Tue 04:15:55 PM 41.1167 -74.3333 169° South 274 315 5,000 -500 Descending New York TRACON
Tue 04:16:55 PM 41.0500 -74.2833 151° Southeast 277 319 5,000 -450 Level New York TRACON
Tue 04:17:55 PM 40.9833 -74.2167 143° Southeast 272 313 4,100 -500 Descending New York TRACON
Tue 04:18:55 PM 40.9333 -74.1500 135° Southeast 260 299 4,000 -143 Descending New York TRACON
Tue 04:20:01 PM 40.8833 -74.1000 143° Southeast 200 230 3,800 -500 Descending New York TRACON
Tue 04:20:55 PM 40.8500 -74.0667 143° Southeast 189 217 3,000 -842 Descending New York TRACON
Tue 04:21:55 PM 40.8000 -74.1000 207° Southwest 192 221 2,200 -900 Descending New York TRACON
Tue 04:22:55 PM 40.7500 -74.1333 207° Southwest 184 212 1,200 -800 Descending New York TRACON
Tue 04:23:55 PM 40.7167 -74.1500 201° Southwest 145 167 600 -600 Descending New York TRACON

Login

Don't have an account? Register now (free) for customized features, flight alerts, and more!